Time;durP1;ratioP1;P1;durP2;ratioP2;P2;SDS_P1;SDS_P2;PMS_P1;PMS_P2;Temp;Humidity;BMP_temperature;BMP_pressure;BME280_temperature;BME280_humidity;BME280_pressure;Samples;Min_cycle;Max_cycle;Signal;HPM_P1;HPM_P2
2021/01/31 00:00:50;;;;;;;22.22;9.90;;;;;;;-3.23;79.12;99401.20;1713310;80;25802;-81
2021/01/31 00:03:21;;;;;;;;;;;;;;;-3.20;79.03;99404.89;1750779;80;25789;-81
2021/01/31 00:05:51;;;;;;;24.05;9.40;;;;;;;-3.17;79.12;99407.73;1679776;83;25844;-80
2021/01/31 00:08:23;;;;;;;40.65;13.95;;;;;;;-3.12;79.34;99416.52;1709905;82;26478;-81
2021/01/31 00:10:51;;;;;;;47.08;14.58;;;;;;;-3.06;79.33;99415.52;1705908;82;27071;-81
2021/01/31 00:13:21;;;;;;;38.20;15.18;;;;;;;-3.03;79.26;99415.24;1683160;82;26038;-80
2021/01/31 00:15:50;;;;;;;64.12;18.23;;;;;;;-3.00;79.13;99419.40;1716623;81;25917;-81
2021/01/31 00:18:22;;;;;;;81.72;24.05;;;;;;;-2.97;79.11;99416.02;1724546;80;25886;-81
2021/01/31 00:20:52;;;;;;;46.40;18.32;;;;;;;-2.94;79.07;99419.70;1739987;80;26034;-80
2021/01/31 00:23:20;;;;;;;;;;;;;;;-2.92;78.91;99419.09;1722030;82;29180;-80
2021/01/31 00:25:48;;;;;;;27.98;12.85;;;;;;;-2.94;78.78;99420.18;1699570;81;25795;-81
2021/01/31 00:28:19;;;;;;;32.48;13.55;;;;;;;-2.96;78.97;99420.32;1712703;81;25368;-80
2021/01/31 00:30:48;;;;;;;22.20;10.48;;;;;;;-2.91;78.94;99423.86;1772852;80;26506;-80
2021/01/31 00:33:22;;;;;;;28.67;13.15;;;;;;;-2.90;78.86;99433.36;1684788;80;26181;-81
2021/01/31 00:35:52;;;;;;;21.70;10.08;;;;;;;-2.92;78.92;99424.34;1690508;82;26739;-81
2021/01/31 00:38:22;;;;;;;19.98;10.03;;;;;;;-2.91;78.96;99427.32;1736729;80;25558;-81
2021/01/31 00:40:50;;;;;;;20.25;9.50;;;;;;;-2.90;78.73;99426.34;1751720;81;26423;-80
2021/01/31 00:43:18;;;;;;;20.48;11.00;;;;;;;-2.99;78.59;99424.50;1666367;81;26569;-81
2021/01/31 00:45:45;;;;;;;19.77;10.00;;;;;;;-2.98;78.59;99431.41;1721734;80;25793;-80
2021/01/31 00:48:13;;;;;;;19.65;9.98;;;;;;;-3.01;78.44;99425.11;1741455;81;28017;-80
2021/01/31 00:50:41;;;;;;;21.15;9.98;;;;;;;-3.09;78.45;99428.86;1714138;81;26454;-80
2021/01/31 00:53:13;;;;;;;21.10;10.45;;;;;;;-3.16;78.52;99425.92;1673299;81;26462;-80
2021/01/31 00:55:43;;;;;;;21.25;10.35;;;;;;;-3.14;78.62;99425.79;1751501;80;25781;-80
2021/01/31 00:58:10;;;;;;;23.10;10.13;;;;;;;-3.15;78.42;99426.77;1705149;82;26360;-81
2021/01/31 01:00:40;;;;;;;19.32;9.45;;;;;;;-3.12;78.55;99421.75;1759238;80;27592;-81
2021/01/31 01:03:10;;;;;;;24.35;11.48;;;;;;;-3.11;78.48;99426.85;1725156;80;25855;-81
2021/01/31 01:05:47;;;;;;;24.37;11.35;;;;;;;-3.02;78.52;99433.95;1792032;79;25703;-81
2021/01/31 01:08:14;;;;;;;19.82;9.78;;;;;;;-3.04;78.53;99433.72;1720067;80;25957;-81
2021/01/31 01:10:42;;;;;;;24.65;10.88;;;;;;;-3.05;78.29;99437.28;1748489;80;27322;-80
2021/01/31 01:13:09;;;;;;;30.10;12.40;;;;;;;-3.08;78.46;99437.55;1718745;82;26235;-81
2021/01/31 01:15:36;;;;;;;26.35;11.90;;;;;;;-3.08;78.53;99442.32;1701584;79;25587;-80
2021/01/31 01:18:04;;;;;;;23.47;10.85;;;;;;;-3.06;78.60;99443.50;1700198;80;25809;-81
2021/01/31 01:20:31;;;;;;;16.93;9.28;;;;;;;-3.07;78.53;99441.81;1737268;80;25950;-81
2021/01/31 01:22:59;;;;;;;16.27;8.38;;;;;;;-3.06;78.27;99450.88;1765684;80;27692;-81
2021/01/31 01:25:27;;;;;;;19.92;10.82;;;;;;;-3.10;78.27;99452.06;1687434;80;26652;-81
2021/01/31 01:27:55;;;;;;;20.35;9.55;;;;;;;-3.10;78.27;99452.06;1762746;80;25902;-81
2021/01/31 01:30:30;;;;;;;20.37;11.38;;;;;;;-3.06;78.37;99448.73;1684252;83;25834;-80
2021/01/31 01:32:59;;;;;;;26.52;12.28;;;;;;;-3.01;78.46;99449.16;1695512;83;25940;-80
2021/01/31 01:35:28;;;;;;;24.32;11.70;;;;;;;-2.96;78.06;99457.47;1632141;83;27506;-80
2021/01/31 01:37:56;;;;;;;26.75;10.75;;;;;;;-2.96;78.06;99457.47;1657860;83;26113;-81
2021/01/31 01:40:35;;;;;;;23.02;10.10;;;;;;;-2.97;78.21;99461.06;1676150;82;26452;-81
2021/01/31 01:43:04;;;;;;;22.22;10.80;;;;;;;-2.98;78.17;99459.39;1702182;83;25869;-81
2021/01/31 01:45:32;;;;;;;20.20;9.40;;;;;;;-2.98;78.18;99460.23;1661513;83;25437;-81
2021/01/31 01:48:14;;;;;;;20.48;8.65;;;;;;;-3.00;77.90;99461.31;1684389;83;28443;-80
2021/01/31 01:50:54;;;;;;;27.75;11.60;;;;;;;-3.05;77.94;99460.37;1653264;83;25477;-82
2021/01/31 01:53:25;;;;;;;23.80;10.75;;;;;;;-3.06;78.05;99467.06;1698757;83;25993;-81
2021/01/31 01:56:12;;;;;;;31.10;15.15;;;;;;;-3.08;77.91;99471.61;1647303;83;25813;-81
2021/01/31 01:58:40;;;;;;;21.17;11.75;;;;;;;-3.12;77.98;99468.39;1677421;83;26295;-81
2021/01/31 02:01:08;;;;;;;19.65;11.30;;;;;;;-3.14;77.98;99468.53;1670846;84;27102;-81
2021/01/31 02:03:40;;;;;;;24.45;11.33;;;;;;;-3.17;77.93;99479.28;1702255;83;25978;-80
2021/01/31 02:06:25;;;;;;;25.12;11.55;;;;;;;-3.17;77.85;99478.44;1702181;83;25821;-81
2021/01/31 02:11:32;;;;;;;20.65;10.95;;;;;;;-3.12;77.86;99491.49;1827881;77;25436;-81
2021/01/31 02:14:03;;;;;;;25.65;11.73;;;;;;;-3.18;77.75;99489.86;1756213;78;26497;-81
2021/01/31 02:16:58;;;;;;;21.62;11.18;;;;;;;-3.18;77.67;99488.55;1802147;78;27499;-81
2021/01/31 02:20:00;;;;;;;25.40;12.65;;;;;;;-3.26;77.32;99484.43;1809989;78;25998;-80
2021/01/31 02:23:00;;;;;;;22.40;11.12;;;;;;;-3.34;77.33;99484.24;1812267;78;25371;-81
2021/01/31 02:26:07;;;;;;;23.20;12.58;;;;;;;-3.38;77.20;99488.07;1768318;80;25827;-81
2021/01/31 02:29:00;;;;;;;23.25;10.90;;;;;;;-3.47;76.85;99492.74;1733340;81;25791;-81
2021/01/31 02:32:10;;;;;;;24.55;9.40;;;;;;;-3.59;76.78;99497.68;1704875;82;27365;-80
2021/01/31 02:35:03;;;;;;;23.00;10.00;;;;;;;-3.70;76.67;99496.41;1732397;81;25809;-81
2021/01/31 02:37:51;;;;;;;23.22;10.75;;;;;;;-3.80;76.54;99499.38;1713868;81;25938;-81
2021/01/31 02:40:32;;;;;;;30.15;12.58;;;;;;;-3.87;76.53;99500.85;1714657;81;25952;-81
2021/01/31 02:43:16;;;;;;;22.30;10.18;;;;;;;-3.92;76.45;99505.98;1723183;81;25837;-81
2021/01/31 02:45:51;;;;;;;28.05;10.98;;;;;;;-3.95;76.33;99500.98;1754193;80;27535;-81
2021/01/31 02:48:33;;;;;;;26.80;10.30;;;;;;;-4.06;76.05;99501.46;1715032;81;25393;-81
2021/01/31 02:51:08;;;;;;;24.55;10.28;;;;;;;-4.15;76.05;99499.09;1715922;81;25770;-81
2021/01/31 02:53:47;;;;;;;25.65;11.20;;;;;;;-4.21;75.95;99502.66;1717002;81;26457;-81
2021/01/31 02:56:23;;;;;;;28.27;11.22;;;;;;;-4.30;75.81;99506.83;1717480;81;26105;-81
2021/01/31 02:59:09;;;;;;;27.22;11.43;;;;;;;-4.38;75.85;99506.61;1715701;81;28468;-80
2021/01/31 03:01:50;;;;;;;21.60;10.45;;;;;;;-4.45;75.92;99508.52;1699355;82;25877;-81
2021/01/31 03:04:38;;;;;;;23.75;11.10;;;;;;;-4.55;75.65;99515.39;1715636;81;25789;-81
2021/01/31 03:07:14;;;;;;;24.70;11.08;;;;;;;-4.66;75.75;99505.77;1757116;81;25752;-81
2021/01/31 03:10:01;;;;;;;21.80;10.20;;;;;;;-4.68;75.96;99510.77;1803330;79;25339;-81
2021/01/31 03:12:43;;;;;;;24.60;10.40;;;;;;;-4.79;75.90;99516.32;1738492;80;25808;-81
2021/01/31 03:15:17;;;;;;;26.87;12.05;;;;;;;-4.83;75.89;99514.05;1741458;80;27540;-81
2021/01/31 03:18:03;;;;;;;26.35;11.10;;;;;;;-4.89;75.92;99516.67;1718924;82;25923;-81
2021/01/31 03:20:38;;;;;;;29.10;12.03;;;;;;;-4.90;75.82;99523.33;1747085;80;26497;-81
2021/01/31 03:23:26;;;;;;;23.87;9.73;;;;;;;-4.94;75.75;99528.42;1719307;82;25736;-81
2021/01/31 03:26:07;;;;;;;30.17;12.75;;;;;;;-5.02;75.45;99525.06;1719566;82;25822;-80
2021/01/31 03:28:35;;;;;;;27.95;11.35;;;;;;;-5.09;75.48;99525.16;1738014;82;27312;-81
2021/01/31 03:31:03;;;;;;;30.72;12.13;;;;;;;-5.10;74.99;99530.03;1746782;81;25775;-81
2021/01/31 03:33:38;;;;;;;28.35;11.85;;;;;;;-5.19;75.05;99525.49;1684001;82;25787;-81
2021/01/31 03:36:06;;;;;;;27.17;10.88;;;;;;;-5.24;75.27;99528.94;1691554;82;25846;-81
2021/01/31 03:38:44;;;;;;;24.47;11.88;;;;;;;-5.29;75.18;99524.98;1720343;82;25811;-80
2021/01/31 03:41:15;;;;;;;28.73;10.50;;;;;;;-5.32;75.22;99522.13;1716566;82;27524;-80
2021/01/31 03:43:42;;;;;;;25.15;11.33;;;;;;;-5.30;75.28;99523.34;1689258;82;25802;-80
2021/01/31 03:46:36;;;;;;;26.35;11.25;;;;;;;-5.32;75.16;99527.84;1695506;82;26434;-80
2021/01/31 03:49:48;;;;;;;33.90;13.22;;;;;;;-5.35;74.96;99534.11;1746383;81;25384;-81
2021/01/31 03:52:16;;;;;;;29.50;14.50;;;;;;;-5.40;74.96;99531.00;1729872;80;26076;-80
2021/01/31 03:54:43;;;;;;;30.88;13.88;;;;;;;-5.42;75.04;99530.28;1688119;82;27534;-80
2021/01/31 03:57:19;;;;;;;27.20;12.75;;;;;;;-5.45;74.97;99533.59;1720424;82;26189;-80
2021/01/31 04:00:07;;;;;;;34.75;14.87;;;;;;;-5.53;74.87;99539.35;1736153;81;25749;-80
2021/01/31 04:02:44;;;;;;;31.15;13.05;;;;;;;-5.58;74.96;99538.88;1744646;82;25814;-80
2021/01/31 04:05:14;;;;;;;29.05;13.22;;;;;;;-5.62;74.97;99539.55;1716528;82;26090;-80
2021/01/31 04:07:45;;;;;;;31.00;12.33;;;;;;;-5.67;75.09;99540.84;1720906;82;32747;-80
2021/01/31 04:10:15;;;;;;;24.63;11.03;;;;;;;-5.71;75.21;99545.42;1728964;82;26496;-80
2021/01/31 04:12:48;;;;;;;25.43;10.98;;;;;;;-5.74;75.40;99540.91;1720777;82;25882;-80
2021/01/31 04:15:44;;;;;;;29.50;11.80;;;;;;;-5.75;75.62;99549.20;1716161;82;26442;-81
2021/01/31 04:18:15;;;;;;;27.15;10.23;;;;;;;-5.73;75.79;99549.11;1712822;80;25774;-81
2021/01/31 04:20:43;;;;;;;;;;;;;;;-5.72;75.97;99557.28;1722210;82;27166;-79
2021/01/31 04:23:10;;;;;;;27.52;11.12;;;;;;;-5.66;76.21;99559.44;1719745;82;25879;-80
2021/01/31 04:25:38;;;;;;;43.80;18.15;;;;;;;-5.65;76.16;99561.13;1720021;82;25411;-80
2021/01/31 04:28:12;;;;;;;39.85;15.65;;;;;;;-5.61;76.23;99561.26;1719800;82;25799;-80
2021/01/31 04:30:41;;;;;;;31.68;15.35;;;;;;;-5.59;76.26;99564.59;1733689;82;25930;-80
2021/01/31 04:33:11;;;;;;;29.12;11.83;;;;;;;-5.56;76.30;99566.48;1696386;82;28606;-81
2021/01/31 04:35:38;;;;;;;30.00;13.60;;;;;;;-5.51;76.12;99563.55;1660353;83;25842;-80
2021/01/31 04:38:09;;;;;;;32.75;15.15;;;;;;;-5.51;76.18;99570.92;1684921;83;25896;-80
2021/01/31 04:40:36;;;;;;;30.97;13.93;;;;;;;-5.51;76.04;99576.59;1657948;85;25877;-80
2021/01/31 04:43:09;;;;;;;32.83;13.78;;;;;;;-5.50;76.14;99583.03;1628705;85;26202;-80
2021/01/31 04:45:38;;;;;;;28.83;12.80;;;;;;;-5.45;76.13;99577.45;1672150;84;28997;-80
2021/01/31 04:48:41;;;;;;;30.72;12.65;;;;;;;-5.40;76.22;99576.66;1672329;84;25772;-81
2021/01/31 04:51:33;;;;;;;28.98;12.82;;;;;;;-5.34;76.23;99578.81;1564359;90;26008;-81
2021/01/31 04:54:25;;;;;;;32.60;13.45;;;;;;;-5.30;76.15;99584.67;1639490;85;25443;-80
2021/01/31 04:57:13;;;;;;;32.20;15.48;;;;;;;-5.27;76.20;99583.95;1668235;85;26505;-80
2021/01/31 04:59:49;;;;;;;28.98;12.58;;;;;;;-5.26;76.11;99590.02;1692897;83;27548;-81
2021/01/31 05:02:21;;;;;;;40.45;15.18;;;;;;;-5.22;76.04;99593.60;1709741;82;25913;-80
2021/01/31 05:04:58;;;;;;;33.95;15.10;;;;;;;-5.18;76.27;99590.28;1644903;85;26427;-80
2021/01/31 05:07:37;;;;;;;37.88;16.12;;;;;;;-5.17;76.16;99590.63;1651504;85;25914;-81
2021/01/31 05:10:09;;;;;;;34.65;14.55;;;;;;;-5.17;76.02;99589.32;1644458;85;26175;-80
2021/01/31 05:12:48;;;;;;;30.68;13.95;;;;;;;-5.20;75.79;99587.80;1690907;84;27338;-80
2021/01/31 05:15:40;;;;;;;32.75;13.80;;;;;;;-5.26;75.73;99583.50;1690574;84;25386;-81
2021/01/31 05:18:10;;;;;;;34.53;14.63;;;;;;;-5.25;75.69;99582.53;1688288;83;25845;-80
2021/01/31 05:20:38;;;;;;;36.65;15.32;;;;;;;-5.28;75.69;99577.55;1668111;84;25841;-80
2021/01/31 05:23:06;;;;;;;34.75;14.00;;;;;;;-5.23;75.72;99569.73;1677603;84;25880;-80
2021/01/31 05:25:37;;;;;;;34.27;13.43;;;;;;;-5.20;75.55;99567.37;1645644;84;28640;-80
2021/01/31 05:28:05;;;;;;;;;;;;;;;-5.23;75.28;99571.05;1670781;84;25887;-80
2021/01/31 05:30:37;;;;;;;34.63;15.80;;;;;;;-5.24;75.14;99568.55;1660824;84;25806;-80
2021/01/31 05:33:17;;;;;;;37.30;17.98;;;;;;;-5.26;75.30;99578.27;1691185;83;25872;-80
2021/01/31 05:35:50;;;;;;;38.85;16.05;;;;;;;-5.28;75.14;99578.86;1617585;84;26358;-81
2021/01/31 05:38:44;;;;;;;37.45;14.58;;;;;;;-5.30;75.10;99572.92;1668223;84;27541;-80
2021/01/31 05:41:42;;;;;;;37.55;15.88;;;;;;;-5.33;74.91;99580.50;1691195;84;25906;-80
2021/01/31 05:44:20;;;;;;;40.67;17.07;;;;;;;-5.36;74.95;99591.14;1688959;84;25412;-80
2021/01/31 05:46:55;;;;;;;36.90;16.90;;;;;;;-5.35;75.01;99599.81;1687770;84;26070;-80
2021/01/31 05:49:44;;;;;;;38.38;17.62;;;;;;;-5.32;75.07;99601.72;1668107;84;25966;-81
2021/01/31 05:52:20;;;;;;;40.60;19.35;;;;;;;-5.29;74.99;99607.19;1688899;84;27420;-81
2021/01/31 05:54:51;;;;;;;74.65;32.30;;;;;;;-5.26;75.11;99618.23;1680990;84;26151;-80
2021/01/31 05:57:28;;;;;;;40.83;18.40;;;;;;;-5.26;75.10;99620.84;1646410;84;26508;-81
2021/01/31 05:59:58;;;;;;;33.45;13.78;;;;;;;-5.31;74.93;99621.67;1668023;84;25919;-80
2021/01/31 06:02:31;;;;;;;41.23;16.10;;;;;;;-5.40;75.06;99621.48;1692018;83;25817;-80
2021/01/31 06:05:16;;;;;;;43.92;18.85;;;;;;;-5.45;75.19;99617.89;1692201;84;27830;-81
2021/01/31 06:07:46;;;;;;;35.33;16.00;;;;;;;-5.47;75.36;99619.32;1686261;84;26898;-80
2021/01/31 06:10:19;;;;;;;38.58;16.25;;;;;;;-5.49;75.45;99626.42;1673550;83;25896;-80
2021/01/31 06:12:51;;;;;;;48.05;17.20;;;;;;;-5.47;75.72;99622.39;1644643;85;25888;-80
2021/01/31 06:15:25;;;;;;;39.55;17.65;;;;;;;-5.44;75.96;99624.80;1671524;85;25897;-80
2021/01/31 06:18:06;;;;;;;56.08;23.20;;;;;;;-5.42;75.79;99629.43;1632996;85;27552;-79
2021/01/31 06:20:35;;;;;;;;;;;;;;;-5.45;75.68;99628.33;1675351;85;25734;-80
2021/01/31 06:23:04;;;;;;;195.47;80.38;;;;;;;-5.47;75.63;99628.91;1644525;85;25387;-80
2021/01/31 06:25:39;;;;;;;120.35;46.60;;;;;;;-5.51;75.56;99628.78;1622129;84;25813;-80
2021/01/31 06:28:18;;;;;;;152.32;56.73;;;;;;;-5.52;75.50;99627.13;1600715;87;25735;-80
2021/01/31 06:31:12;;;;;;;597.30;231.25;;;;;;;-5.55;75.34;99622.95;1658505;84;27551;-78
2021/01/31 06:33:43;;;;;;;178.18;65.57;;;;;;;-5.57;75.37;99627.45;1639043;85;26389;-79
2021/01/31 06:36:39;;;;;;;304.70;102.02;;;;;;;-5.53;75.39;99633.27;1576086;87;25879;-80
2021/01/31 06:39:32;;;;;;;85.15;38.90;;;;;;;-5.56;75.33;99633.02;1668980;84;25848;-79
2021/01/31 06:42:52;;;;;;;45.95;21.02;;;;;;;-5.61;75.48;99632.53;1673006;83;25399;-80
2021/01/31 06:45:37;;;;;;;44.77;16.00;;;;;;;-5.64;75.62;99634.50;1632876;85;27133;-80
2021/01/31 06:48:48;;;;;;;36.05;13.40;;;;;;;-5.70;75.89;99644.06;1653204;85;26379;-79
2021/01/31 06:51:22;;;;;;;;;;;;;;;-5.68;75.98;99648.70;1676416;84;26389;-79
2021/01/31 06:54:11;;;;;;;37.53;15.98;;;;;;;-5.68;76.24;99644.33;1651123;84;25759;-80
2021/01/31 06:57:30;;;;;;;48.35;20.30;;;;;;;-5.68;76.40;99650.00;1644130;85;26499;-80
2021/01/31 07:00:43;;;;;;;62.40;27.30;;;;;;;-5.63;76.35;99650.53;1612051;85;27635;-81
2021/01/31 07:03:28;;;;;;;113.17;49.05;;;;;;;-5.57;76.38;99659.22;1648054;84;25857;-81
2021/01/31 07:06:24;;;;;;;44.73;20.95;;;;;;;-5.53;76.42;99656.29;1671102;84;25895;-81
2021/01/31 07:09:11;;;;;;;75.90;34.75;;;;;;;-5.50;76.46;99663.07;1642427;83;25954;-82
2021/01/31 07:12:12;;;;;;;122.78;53.52;;;;;;;-5.43;76.54;99664.28;1667424;85;25985;-81
2021/01/31 07:15:11;;;;;;;64.95;30.43;;;;;;;-5.40;76.42;99669.75;1673079;85;27618;-80
2021/01/31 07:17:59;;;;;;;58.77;29.80;;;;;;;-5.38;76.40;99671.31;1674448;84;26266;-79
2021/01/31 07:20:34;;;;;;;100.90;43.60;;;;;;;-5.38;76.52;99675.70;1651477;85;25792;-79
2021/01/31 07:23:34;;;;;;;83.78;40.08;;;;;;;-5.37;76.40;99687.81;1677275;85;26242;-79
2021/01/31 07:26:06;;;;;;;40.48;18.65;;;;;;;-5.35;76.46;99690.69;1647508;85;25921;-79
2021/01/31 07:28:39;;;;;;;47.85;21.30;;;;;;;-5.35;76.49;99696.37;1647875;85;27741;-80
2021/01/31 07:31:23;;;;;;;33.67;16.97;;;;;;;-5.30;76.56;99697.70;1680420;85;25791;-79
2021/01/31 07:34:04;;;;;;;31.12;14.78;;;;;;;-5.27;76.44;99692.27;1676783;85;25880;-80
2021/01/31 07:36:45;;;;;;;36.50;13.85;;;;;;;-5.19;76.43;99691.25;1781235;79;25795;-81
2021/01/31 07:39:17;;;;;;;37.30;17.50;;;;;;;-5.22;76.50;99695.40;1698476;83;26366;-81
2021/01/31 07:41:56;;;;;;;46.55;23.25;;;;;;;-5.15;76.63;99706.23;1748826;81;27535;-80
2021/01/31 07:44:30;;;;;;;36.13;17.35;;;;;;;-5.07;76.67;99709.94;1762227;80;25940;-81
2021/01/31 07:47:00;;;;;;;44.65;20.52;;;;;;;-4.99;76.58;99712.01;1727836;80;25797;-80
2021/01/31 07:49:59;;;;;;;50.50;20.72;;;;;;;-4.93;76.62;99713.71;1690081;81;25896;-80
2021/01/31 07:52:29;;;;;;;50.67;20.72;;;;;;;-4.86;76.48;99716.25;1743439;80;26258;-80
2021/01/31 07:55:11;;;;;;;57.58;24.12;;;;;;;-4.80;76.26;99720.17;1723017;80;27350;-81
2021/01/31 07:57:40;;;;;;;52.50;23.75;;;;;;;-4.77;76.40;99715.55;1760424;80;26642;-81
2021/01/31 08:00:15;;;;;;;44.35;22.32;;;;;;;-4.68;76.34;99723.69;1692418;81;25353;-81
2021/01/31 08:02:48;;;;;;;37.65;19.73;;;;;;;-4.64;76.18;99725.13;1730284;80;26397;-81
2021/01/31 08:05:37;;;;;;;36.00;15.72;;;;;;;-4.59;76.14;99719.91;1734112;81;25451;-81
2021/01/31 08:08:08;;;;;;;43.28;19.92;;;;;;;-4.57;75.85;99715.41;1754022;80;27505;-81
2021/01/31 08:10:45;;;;;;;36.45;18.23;;;;;;;-4.52;76.10;99715.07;1710666;81;26092;-81
2021/01/31 08:13:39;;;;;;;42.98;20.45;;;;;;;-4.49;75.89;99718.28;1752967;80;25798;-81
2021/01/31 08:16:48;;;;;;;56.33;30.90;;;;;;;-4.45;75.86;99730.20;1740822;80;25984;-81
2021/01/31 08:19:28;;;;;;;42.85;19.87;;;;;;;-4.40;75.81;99733.75;1750525;80;26068;-81
2021/01/31 08:22:13;;;;;;;54.13;26.42;;;;;;;-4.37;75.75;99738.77;1744985;81;26818;-82
2021/01/31 08:25:12;;;;;;;50.33;22.85;;;;;;;-4.35;75.64;99739.02;1721788;81;25787;-79
2021/01/31 08:27:45;;;;;;;62.03;26.12;;;;;;;-4.31;75.65;99737.84;1732014;80;25796;-79
2021/01/31 08:30:33;;;;;;;55.28;22.07;;;;;;;-4.24;75.53;99739.52;1756432;80;26415;-79
2021/01/31 08:33:12;;;;;;;51.40;19.27;;;;;;;-4.16;75.51;99738.47;1706677;81;26418;-82
2021/01/31 08:35:48;;;;;;;46.10;18.65;;;;;;;-4.16;74.83;99738.47;1713165;81;28526;-80
2021/01/31 08:38:28;;;;;;;56.70;21.35;;;;;;;-4.13;75.08;99735.64;1727481;81;25906;-80
2021/01/31 08:41:03;;;;;;;45.80;16.57;;;;;;;-4.08;74.98;99745.25;1755485;80;25723;-80
2021/01/31 08:43:51;;;;;;;44.13;16.07;;;;;;;-4.05;74.43;99743.27;1740992;81;25987;-81
2021/01/31 08:46:34;;;;;;;43.98;17.98;;;;;;;-4.04;74.47;99744.91;1714951;81;26754;-80
2021/01/31 08:49:14;;;;;;;41.00;17.15;;;;;;;-4.06;74.48;99751.20;1719265;82;28292;-79
2021/01/31 08:51:45;;;;;;;42.15;18.27;;;;;;;-4.03;74.50;99764.06;1742641;81;26150;-79
2021/01/31 08:54:16;;;;;;;36.50;15.18;;;;;;;-3.97;74.46;99767.52;1748863;80;25752;-80
2021/01/31 08:56:47;;;;;;;26.70;11.45;;;;;;;-3.95;74.18;99769.08;1700662;81;25817;-79
2021/01/31 08:59:37;;;;;;;41.92;16.40;;;;;;;-3.91;73.97;99771.81;1716270;81;26413;-79
2021/01/31 09:02:18;;;;;;;35.08;14.87;;;;;;;-3.89;74.05;99771.69;1752529;81;27619;-80
2021/01/31 09:04:59;;;;;;;33.30;14.00;;;;;;;-3.86;73.48;99771.94;1671140;84;26578;-81
2021/01/31 09:07:39;;;;;;;38.73;17.05;;;;;;;-3.81;73.89;99776.36;1663977;83;26120;-80
2021/01/31 09:10:35;;;;;;;35.75;15.75;;;;;;;-3.74;74.07;99780.19;1657008;84;25825;-80
2021/01/31 09:13:16;;;;;;;28.15;12.35;;;;;;;-3.71;73.79;99779.47;1670923;84;26591;-79
2021/01/31 09:15:44;;;;;;;33.50;15.38;;;;;;;-3.67;73.36;99783.52;1667463;84;28564;-79
2021/01/31 09:18:19;;;;;;;31.37;13.58;;;;;;;-3.61;73.45;99783.03;1668930;84;25748;-80
2021/01/31 09:20:48;;;;;;;30.05;12.70;;;;;;;-3.57;73.31;99787.09;1679237;83;25989;-79
2021/01/31 09:23:26;;;;;;;37.95;14.83;;;;;;;-3.53;72.86;99789.82;1704568;83;25365;-79
2021/01/31 09:25:56;;;;;;;28.17;14.10;;;;;;;-3.49;73.21;99791.75;1677753;83;25783;-80
2021/01/31 09:28:26;;;;;;;42.25;17.77;;;;;;;-3.47;72.68;99798.54;1673798;84;27614;-79
2021/01/31 09:31:00;;;;;;;33.92;15.60;;;;;;;-3.46;72.47;99796.27;1674866;83;26369;-79
2021/01/31 09:33:40;;;;;;;38.55;15.70;;;;;;;-3.42;72.71;99794.27;1698956;83;25399;-79
2021/01/31 09:36:31;;;;;;;34.23;14.18;;;;;;;-3.40;71.85;99792.36;1701324;83;26465;-80
2021/01/31 09:39:03;;;;;;;26.85;13.15;;;;;;;-3.43;72.11;99800.44;1649548;82;25465;-80
2021/01/31 09:41:33;;;;;;;35.92;16.15;;;;;;;-3.41;71.72;99796.75;1661617;82;27079;-79
2021/01/31 09:44:04;;;;;;;38.70;19.67;;;;;;;-3.40;71.57;99799.71;1728102;82;25784;-79
2021/01/31 09:46:37;;;;;;;46.83;20.35;;;;;;;-3.40;71.47;99799.71;1689434;81;25362;-80
2021/01/31 09:49:21;;;;;;;41.37;20.37;;;;;;;-3.41;71.62;99800.68;1696240;82;26188;-80
2021/01/31 09:51:48;;;;;;;64.10;30.10;;;;;;;-3.38;71.73;99800.92;1667299;83;26509;-81
2021/01/31 09:54:26;;;;;;;55.98;26.15;;;;;;;-3.34;71.60;99804.50;1677620;83;27528;-81
2021/01/31 09:57:06;;;;;;;60.00;31.55;;;;;;;-3.23;71.54;99800.55;1835006;77;26355;-81
2021/01/31 09:59:37;;;;;;;36.98;18.45;;;;;;;-3.23;72.05;99808.91;1765953;80;25695;-81
2021/01/31 10:02:16;;;;;;;35.03;15.83;;;;;;;-3.19;71.16;99805.90;1771406;78;27583;-79
2021/01/31 10:04:48;;;;;;;37.10;16.85;;;;;;;-3.20;70.76;99804.72;1765305;78;26028;-80
2021/01/31 10:07:34;;;;;;;28.80;13.55;;;;;;;-3.19;70.91;99815.56;1771937;79;25856;-81
2021/01/31 10:10:37;;;;;;;35.28;16.12;;;;;;;-3.23;70.28;99810.22;1778223;78;25841;-79
2021/01/31 10:13:36;;;;;;;27.65;14.33;;;;;;;-3.15;71.52;99822.23;1790011;78;25716;-79
2021/01/31 10:16:25;;;;;;;62.10;29.10;;;;;;;-3.15;71.52;99822.23;1781424;78;28016;-79
2021/01/31 10:18:53;;;;;;;42.55;19.10;;;;;;;-3.08;71.57;99817.34;1802719;78;25829;-80
2021/01/31 10:21:29;;;;;;;35.15;16.55;;;;;;;-3.00;71.32;99814.95;1754733;78;26460;-79
2021/01/31 10:24:23;;;;;;;31.30;16.42;;;;;;;-3.00;70.70;99818.42;1812570;78;26179;-80
2021/01/31 10:27:22;;;;;;;32.10;15.70;;;;;;;-3.02;70.38;99811.63;1801188;77;25817;-83
2021/01/31 10:29:51;;;;;;;37.53;19.25;;;;;;;-3.02;70.81;99815.09;1738859;81;27796;-81
2021/01/31 10:32:41;;;;;;;35.52;17.07;;;;;;;-3.00;70.61;99811.87;1741853;81;25862;-81
2021/01/31 10:35:30;;;;;;;24.85;11.00;;;;;;;-2.98;70.40;99814.36;1709706;81;25933;-81
2021/01/31 10:38:20;;;;;;;24.02;11.50;;;;;;;-2.98;69.50;99814.36;1712165;81;25824;-80
2021/01/31 10:40:48;;;;;;;45.40;20.62;;;;;;;-3.01;69.98;99813.27;1765329;81;26355;-81
2021/01/31 10:43:21;;;;;;;33.67;15.75;;;;;;;-3.01;70.27;99812.80;1706359;81;28459;-81
2021/01/31 10:45:49;;;;;;;31.33;15.40;;;;;;;-2.98;70.27;99816.98;1732619;81;25860;-81
2021/01/31 10:48:16;;;;;;;29.67;14.07;;;;;;;-2.97;70.24;99822.59;1748923;80;26386;-81
2021/01/31 10:50:45;;;;;;;33.48;15.63;;;;;;;-2.96;70.01;99820.31;1760090;80;25954;-81
2021/01/31 10:53:12;;;;;;;30.15;13.98;;;;;;;-2.93;70.37;99818.27;1708426;80;25795;-81
2021/01/31 10:55:40;;;;;;;29.20;14.23;;;;;;;-2.89;70.32;99813.17;1717075;80;27736;-81
2021/01/31 10:58:09;;;;;;;32.93;16.52;;;;;;;-2.86;69.77;99817.31;1716533;81;25997;-81
2021/01/31 11:00:38;;;;;;;28.50;14.23;;;;;;;-2.83;70.03;99820.55;1768247;80;25838;-81
2021/01/31 11:03:07;;;;;;;26.85;13.65;;;;;;;-2.80;70.17;99814.23;1714032;81;25770;-81
2021/01/31 11:05:37;;;;;;;33.35;14.38;;;;;;;-2.78;70.20;99811.81;1710143;81;25683;-80
2021/01/31 11:08:05;;;;;;;102.78;36.38;;;;;;;-2.78;69.10;99806.58;1727952;81;27332;-80
2021/01/31 11:10:33;;;;;;;62.83;25.37;;;;;;;-2.80;69.49;99804.56;1769549;80;25751;-80
2021/01/31 11:13:01;;;;;;;33.98;15.40;;;;;;;-2.80;69.42;99808.99;1712520;81;25724;-80
2021/01/31 11:15:28;;;;;;;28.17;12.40;;;;;;;-2.81;69.35;99812.08;1702625;81;25805;-80
2021/01/31 11:17:57;;;;;;;19.52;10.15;;;;;;;-2.81;69.07;99804.69;1736118;81;25442;-80
2021/01/31 11:20:24;;;;;;;30.25;15.23;;;;;;;-2.77;68.87;99806.95;1726232;82;27517;-80
2021/01/31 11:22:54;;;;;;;28.23;13.88;;;;;;;-2.72;69.44;99804.81;1716711;82;25754;-80
2021/01/31 11:25:23;;;;;;;28.25;14.38;;;;;;;-2.69;69.04;99805.85;1706681;81;25810;-80
2021/01/31 11:27:50;;;;;;;34.45;16.65;;;;;;;-2.67;69.26;99811.80;1731251;81;26213;-81
2021/01/31 11:30:18;;;;;;;42.10;23.02;;;;;;;-2.64;69.27;99802.39;1745506;81;25722;-80
2021/01/31 11:32:47;;;;;;;36.65;19.67;;;;;;;-2.58;69.46;99799.75;1713284;81;27733;-80
2021/01/31 11:35:16;;;;;;;36.30;24.32;;;;;;;-2.54;69.66;99795.92;1711204;81;25816;-81
2021/01/31 11:37:43;;;;;;;30.30;18.98;;;;;;;-2.50;69.09;99802.58;1698462;81;25837;-80
2021/01/31 11:40:11;;;;;;;57.62;30.43;;;;;;;-2.46;69.01;99796.16;1740895;81;25387;-80
2021/01/31 11:42:39;;;;;;;29.23;17.23;;;;;;;-2.42;69.29;99798.89;1736281;81;25772;-80
2021/01/31 11:45:09;;;;;;;28.87;13.60;;;;;;;-2.38;69.22;99801.61;1736577;81;27591;-80
2021/01/31 11:47:37;;;;;;;25.40;13.98;;;;;;;-2.37;69.11;99793.61;1724805;81;25828;-80
2021/01/31 11:50:07;;;;;;;23.32;12.95;;;;;;;-2.35;69.16;99793.47;1740179;81;25886;-80
2021/01/31 11:52:35;;;;;;;24.85;13.35;;;;;;;-2.31;69.18;99792.30;1752028;79;26486;-81
2021/01/31 11:55:05;;;;;;;23.65;12.18;;;;;;;-2.41;68.12;99778.24;1769056;78;25798;-81
2021/01/31 11:57:35;;;;;;;27.50;13.98;;;;;;;-2.41;68.12;99778.24;1777228;79;27771;-81
2021/01/31 12:00:10;;;;;;;27.77;13.17;;;;;;;-2.41;68.55;99781.70;1797576;79;25716;-80
2021/01/31 12:02:40;;;;;;;24.77;11.80;;;;;;;-2.41;68.55;99781.70;1776041;78;26455;-80
2021/01/31 12:05:15;;;;;;;23.00;12.28;;;;;;;-2.34;67.67;99788.59;1796858;79;25377;-80
2021/01/31 12:07:43;;;;;;;18.20;9.75;;;;;;;-2.31;68.43;99792.77;1777452;79;25350;-81